KOKC/OKC METAR and TAF weather

Enter ICAO airport designator
Station Type Date Time Source
KOKC METAR 2020/01/22 11:52 UTC NOAA

KOKC 221152Z 16018G23KT 3SM -RA BR OVC005 02/02 A2999 RMK AO2 PK WND 16027/1114 SNE49 SLP161 931001 4/000 P0004 60023 70029 T00220022 10022 20000 56029 $


Station Type Date Time Source
KOKC Decoded METAR 2020/01/22 11:52 UTC NOAA

WILL ROGERS WORLD AIRPORT, OK, United States (KOKC) 35-23N 97-36W 390M
Jan 22, 2020 - 06:52 AM EST / 2020.01.22 1152 UTC
Wind: from the SSE (160 degrees) at 21 MPH (18 KT) gusting to 26 MPH (23 KT):0
Visibility: 3 mile(s):0
Sky conditions: overcast
Weather: light rain; mist; 0 inches of snow on ground
Precipitation last hour: 0.04 inches
Temperature: 36.0 F (2.2 C)
Dew Point: 36.0 F (2.2 C)
Relative Humidity: 100%
Pressure (altimeter): 29.99 in. Hg (1015 hPa)
Pressure tendency: 0.09 inches (2.9 hPa) lower than three hours ago
ob: KOKC 221152Z 16018G23KT 3SM -RA BR OVC005 02/02 A2999 RMK AO2 PK WND 16027/1114 SNE49 SLP161 931001 4/000 P0004 60023 70029 T00220022 10022 20000 56029
cycle: 12

Station Type Date Time Source
KOKC TAF 2020/01/22 12:27 UTC NOAA

TAF KOKC 221124Z 2212/2312 17017G26KT 2SM -RASN BR OVC005
FM221500 17018G26KT 4SM -RADZ BR OVC008
FM230300 16007KT 3SM BR OVC002 PROB30 2303/2306 2SM -SHRA OVC025
FM231000 31006KT 3SM BR OVC005

Example: see airport list